sensor_id;sensor_type;location;lat;lon;timestamp;pressure;altitude;pressure_sealevel;temperature;humidity
9257;BME280;4665;51.368;6.782;2023-10-19T00:00:35;62069.41;;;-145.78;100.00
9257;BME280;4665;51.368;6.782;2023-10-19T00:03:02;62069.41;;;-145.78;100.00
9257;BME280;4665;51.368;6.782;2023-10-19T00:05:30;62069.41;;;-145.78;100.00
9257;BME280;4665;51.368;6.782;2023-10-19T00:07:58;62069.41;;;-145.78;100.00
9257;BME280;4665;51.368;6.782;2023-10-19T00:10:25;62069.41;;;-145.78;100.00
9257;BME280;4665;51.368;6.782;2023-10-19T00:12:54;62069.41;;;-145.78;100.00
9257;BME280;4665;51.368;6.782;2023-10-19T00:15:26;62069.41;;;-145.78;100.00
9257;BME280;4665;51.368;6.782;2023-10-19T00:17:56;62069.41;;;-145.78;100.00
9257;BME280;4665;51.368;6.782;2023-10-19T00:20:24;62069.41;;;-145.78;100.00
9257;BME280;4665;51.368;6.782;2023-10-19T00:23:00;62069.41;;;-145.78;100.00
9257;BME280;4665;51.368;6.782;2023-10-19T00:25:30;62069.41;;;-145.78;100.00
9257;BME280;4665;51.368;6.782;2023-10-19T00:27:56;62069.41;;;-145.78;100.00
9257;BME280;4665;51.368;6.782;2023-10-19T00:30:25;62069.41;;;-145.78;100.00
9257;BME280;4665;51.368;6.782;2023-10-19T00:32:55;62069.41;;;-145.78;100.00
9257;BME280;4665;51.368;6.782;2023-10-19T00:35:21;62069.41;;;-145.78;100.00
9257;BME280;4665;51.368;6.782;2023-10-19T00:38:07;62069.41;;;-145.78;100.00
9257;BME280;4665;51.368;6.782;2023-10-19T00:41:08;99130.72;;;11.34;100.00
9257;BME280;4665;51.368;6.782;2023-10-19T00:43:38;62069.41;;;-145.78;100.00
9257;BME280;4665;51.368;6.782;2023-10-19T00:46:18;62069.41;;;-145.78;100.00
9257;BME280;4665;51.368;6.782;2023-10-19T00:49:04;99153.56;;;11.57;100.00
9257;BME280;4665;51.368;6.782;2023-10-19T00:51:52;99149.66;;;11.53;100.00
9257;BME280;4665;51.368;6.782;2023-10-19T00:54:31;62069.41;;;-145.78;100.00
9257;BME280;4665;51.368;6.782;2023-10-19T00:57:08;62069.41;;;-145.78;100.00
9257;BME280;4665;51.368;6.782;2023-10-19T00:59:37;62069.41;;;-145.78;100.00
9257;BME280;4665;51.368;6.782;2023-10-19T01:02:08;62069.41;;;-145.78;100.00
9257;BME280;4665;51.368;6.782;2023-10-19T01:04:46;62069.41;;;-145.78;100.00
9257;BME280;4665;51.368;6.782;2023-10-19T01:07:17;62069.41;;;-145.78;100.00
9257;BME280;4665;51.368;6.782;2023-10-19T01:10:00;62069.41;;;-145.78;100.00
9257;BME280;4665;51.368;6.782;2023-10-19T01:12:27;62069.41;;;-145.78;100.00
9257;BME280;4665;51.368;6.782;2023-10-19T01:15:11;62069.41;;;-145.78;100.00
9257;BME280;4665;51.368;6.782;2023-10-19T01:17:52;62069.41;;;-145.78;100.00
9257;BME280;4665;51.368;6.782;2023-10-19T01:20:19;62069.41;;;-145.78;100.00
9257;BME280;4665;51.368;6.782;2023-10-19T01:22:54;62069.41;;;-145.78;100.00
9257;BME280;4665;51.368;6.782;2023-10-19T01:25:47;62069.41;;;-145.78;100.00
9257;BME280;4665;51.368;6.782;2023-10-19T01:28:16;62069.41;;;-145.78;100.00
9257;BME280;4665;51.368;6.782;2023-10-19T01:30:43;62069.41;;;-145.78;100.00
9257;BME280;4665;51.368;6.782;2023-10-19T01:33:17;62069.41;;;-145.78;100.00
9257;BME280;4665;51.368;6.782;2023-10-19T01:35:44;62069.41;;;-145.78;100.00
9257;BME280;4665;51.368;6.782;2023-10-19T01:38:28;62069.41;;;-145.78;100.00
9257;BME280;4665;51.368;6.782;2023-10-19T01:40:59;62069.41;;;-145.78;100.00
9257;BME280;4665;51.368;6.782;2023-10-19T01:43:26;62069.41;;;-145.78;100.00
9257;BME280;4665;51.368;6.782;2023-10-19T01:45:56;62069.41;;;-145.78;100.00
9257;BME280;4665;51.368;6.782;2023-10-19T01:48:21;62069.41;;;-145.78;100.00
9257;BME280;4665;51.368;6.782;2023-10-19T01:51:04;62069.41;;;-145.78;100.00
9257;BME280;4665;51.368;6.782;2023-10-19T01:53:33;62069.41;;;-145.78;100.00
9257;BME280;4665;51.368;6.782;2023-10-19T01:56:02;62069.41;;;-145.78;100.00
9257;BME280;4665;51.368;6.782;2023-10-19T01:58:31;62069.41;;;-145.78;100.00
9257;BME280;4665;51.368;6.782;2023-10-19T02:00:59;62069.41;;;-145.78;100.00
9257;BME280;4665;51.368;6.782;2023-10-19T02:03:31;62069.41;;;-145.78;100.00
9257;BME280;4665;51.368;6.782;2023-10-19T02:06:03;62069.41;;;-145.78;100.00
9257;BME280;4665;51.368;6.782;2023-10-19T02:08:37;62069.41;;;-145.78;100.00
9257;BME280;4665;51.368;6.782;2023-10-19T02:11:06;62069.41;;;-145.78;100.00
9257;BME280;4665;51.368;6.782;2023-10-19T02:13:42;62069.41;;;-145.78;100.00
9257;BME280;4665;51.368;6.782;2023-10-19T02:16:08;62069.41;;;-145.78;100.00
9257;BME280;4665;51.368;6.782;2023-10-19T02:18:33;62069.41;;;-145.78;100.00
9257;BME280;4665;51.368;6.782;2023-10-19T02:21:01;62069.41;;;-145.78;100.00
9257;BME280;4665;51.368;6.782;2023-10-19T02:23:32;62069.41;;;-145.78;100.00
9257;BME280;4665;51.368;6.782;2023-10-19T02:26:01;62069.41;;;-145.78;100.00
9257;BME280;4665;51.368;6.782;2023-10-19T02:28:28;62069.41;;;-145.78;100.00
9257;BME280;4665;51.368;6.782;2023-10-19T02:30:57;62069.41;;;-145.78;100.00
9257;BME280;4665;51.368;6.782;2023-10-19T02:33:23;62069.41;;;-145.78;100.00
9257;BME280;4665;51.368;6.782;2023-10-19T02:35:49;62069.41;;;-145.78;100.00
9257;BME280;4665;51.368;6.782;2023-10-19T02:38:16;62069.41;;;-145.78;100.00
9257;BME280;4665;51.368;6.782;2023-10-19T02:40:42;62069.41;;;-145.78;100.00
9257;BME280;4665;51.368;6.782;2023-10-19T02:43:07;62069.41;;;-145.78;100.00
9257;BME280;4665;51.368;6.782;2023-10-19T02:45:34;62069.41;;;-145.78;100.00
9257;BME280;4665;51.368;6.782;2023-10-19T02:47:59;62069.41;;;-145.78;100.00
9257;BME280;4665;51.368;6.782;2023-10-19T02:50:25;62069.41;;;-145.78;100.00
9257;BME280;4665;51.368;6.782;2023-10-19T02:52:52;62069.41;;;-145.78;100.00
9257;BME280;4665;51.368;6.782;2023-10-19T02:55:18;62069.41;;;-145.78;100.00
9257;BME280;4665;51.368;6.782;2023-10-19T02:57:48;62069.41;;;-145.78;100.00
9257;BME280;4665;51.368;6.782;2023-10-19T03:00:15;62069.41;;;-145.78;100.00
9257;BME280;4665;51.368;6.782;2023-10-19T03:02:45;62069.41;;;-145.78;100.00
9257;BME280;4665;51.368;6.782;2023-10-19T03:05:10;62069.41;;;-145.78;100.00
9257;BME280;4665;51.368;6.782;2023-10-19T03:07:43;62069.41;;;-145.78;100.00
9257;BME280;4665;51.368;6.782;2023-10-19T03:10:09;62069.41;;;-145.78;100.00
9257;BME280;4665;51.368;6.782;2023-10-19T03:12:49;99110.34;;;12.61;100.00
9257;BME280;4665;51.368;6.782;2023-10-19T03:15:15;99100.69;;;12.67;100.00
9257;BME280;4665;51.368;6.782;2023-10-19T03:17:40;99083.84;;;12.60;100.00
9257;BME280;4665;51.368;6.782;2023-10-19T03:20:06;99096.56;;;12.64;100.00
9257;BME280;4665;51.368;6.782;2023-10-19T03:22:32;62069.41;;;-145.78;100.00
9257;BME280;4665;51.368;6.782;2023-10-19T03:24:59;62069.41;;;-145.78;100.00
9257;BME280;4665;51.368;6.782;2023-10-19T03:27:39;62069.41;;;-145.78;100.00
9257;BME280;4665;51.368;6.782;2023-10-19T03:30:06;62069.41;;;-145.78;100.00
9257;BME280;4665;51.368;6.782;2023-10-19T03:35:00;62069.41;;;-145.78;100.00
9257;BME280;4665;51.368;6.782;2023-10-19T03:37:27;99081.31;;;12.85;100.00
9257;BME280;4665;51.368;6.782;2023-10-19T03:39:55;99089.56;;;12.83;100.00
9257;BME280;4665;51.368;6.782;2023-10-19T03:42:21;99086.66;;;12.85;100.00
9257;BME280;4665;51.368;6.782;2023-10-19T03:44:50;99081.75;;;12.82;100.00
9257;BME280;4665;51.368;6.782;2023-10-19T03:47:19;99080.09;;;12.81;100.00
9257;BME280;4665;51.368;6.782;2023-10-19T03:49:45;99072.69;;;12.83;100.00
9257;BME280;4665;51.368;6.782;2023-10-19T03:52:12;99073.28;;;12.85;100.00
9257;BME280;4665;51.368;6.782;2023-10-19T03:54:38;99058.31;;;12.84;100.00
9257;BME280;4665;51.368;6.782;2023-10-19T03:57:04;99047.63;;;12.77;100.00
9257;BME280;4665;51.368;6.782;2023-10-19T03:59:32;99051.75;;;12.73;100.00
9257;BME280;4665;51.368;6.782;2023-10-19T04:02:00;99044.97;;;12.71;100.00
9257;BME280;4665;51.368;6.782;2023-10-19T04:04:28;99058.72;;;12.81;100.00
9257;BME280;4665;51.368;6.782;2023-10-19T04:06:55;99068.56;;;12.87;100.00
9257;BME280;4665;51.368;6.782;2023-10-19T04:09:24;99056.03;;;12.81;100.00
9257;BME280;4665;51.368;6.782;2023-10-19T04:11:55;99052.53;;;12.87;100.00
9257;BME280;4665;51.368;6.782;2023-10-19T04:14:21;99043.09;;;12.84;100.00
9257;BME280;4665;51.368;6.782;2023-10-19T04:16:46;99048.41;;;12.91;100.00
9257;BME280;4665;51.368;6.782;2023-10-19T04:19:14;99051.69;;;12.93;100.00
9257;BME280;4665;51.368;6.782;2023-10-19T04:21:41;99047.19;;;12.87;100.00
9257;BME280;4665;51.368;6.782;2023-10-19T04:24:09;99054.13;;;12.95;100.00
9257;BME280;4665;51.368;6.782;2023-10-19T04:26:38;99048.78;;;12.95;100.00
9257;BME280;4665;51.368;6.782;2023-10-19T04:29:04;99061.94;;;12.96;100.00
9257;BME280;4665;51.368;6.782;2023-10-19T04:31:36;99051.25;;;12.96;100.00
9257;BME280;4665;51.368;6.782;2023-10-19T04:34:03;99042.03;;;12.85;100.00
9257;BME280;4665;51.368;6.782;2023-10-19T04:36:33;99052.31;;;12.95;100.00
9257;BME280;4665;51.368;6.782;2023-10-19T04:38:59;99045.13;;;12.89;100.00
9257;BME280;4665;51.368;6.782;2023-10-19T04:41:25;99051.88;;;12.98;100.00
9257;BME280;4665;51.368;6.782;2023-10-19T04:43:53;99049.84;;;12.94;100.00
9257;BME280;4665;51.368;6.782;2023-10-19T04:46:19;99039.78;;;12.89;100.00
9257;BME280;4665;51.368;6.782;2023-10-19T04:48:45;99056.16;;;12.99;100.00
9257;BME280;4665;51.368;6.782;2023-10-19T04:51:11;99035.84;;;12.92;100.00
9257;BME280;4665;51.368;6.782;2023-10-19T04:53:37;99046.09;;;13.01;100.00
9257;BME280;4665;51.368;6.782;2023-10-19T04:56:04;99057.41;;;13.03;100.00
9257;BME280;4665;51.368;6.782;2023-10-19T04:58:30;99043.03;;;12.98;100.00
9257;BME280;4665;51.368;6.782;2023-10-19T05:00:55;99057.66;;;12.95;100.00
9257;BME280;4665;51.368;6.782;2023-10-19T05:03:23;99064.81;;;13.01;100.00
9257;BME280;4665;51.368;6.782;2023-10-19T05:05:48;99064.00;;;13.01;100.00
9257;BME280;4665;51.368;6.782;2023-10-19T05:08:14;99059.47;;;13.01;100.00
9257;BME280;4665;51.368;6.782;2023-10-19T05:10:39;99051.03;;;13.04;100.00
9257;BME280;4665;51.368;6.782;2023-10-19T05:13:06;99054.09;;;13.01;100.00
9257;BME280;4665;51.368;6.782;2023-10-19T05:15:31;99066.03;;;13.05;100.00
9257;BME280;4665;51.368;6.782;2023-10-19T05:17:59;99059.88;;;12.98;100.00
9257;BME280;4665;51.368;6.782;2023-10-19T05:20:24;99069.31;;;13.08;100.00
9257;BME280;4665;51.368;6.782;2023-10-19T05:22:50;99055.34;;;13.05;100.00
9257;BME280;4665;51.368;6.782;2023-10-19T05:25:16;99059.06;;;13.04;100.00
9257;BME280;4665;51.368;6.782;2023-10-19T05:27:41;99059.06;;;13.04;100.00
9257;BME280;4665;51.368;6.782;2023-10-19T05:30:08;99057.63;;;13.02;100.00
9257;BME280;4665;51.368;6.782;2023-10-19T05:32:35;99057.63;;;13.02;100.00
9257;BME280;4665;51.368;6.782;2023-10-19T05:35:01;99059.47;;;13.01;100.00
9257;BME280;4665;51.368;6.782;2023-10-19T05:37:29;99053.28;;;13.01;100.00
9257;BME280;4665;51.368;6.782;2023-10-19T05:39:55;99059.47;;;13.01;100.00
9257;BME280;4665;51.368;6.782;2023-10-19T05:42:20;99056.81;;;12.95;100.00
9257;BME280;4665;51.368;6.782;2023-10-19T05:44:47;99055.81;;;12.89;100.00
9257;BME280;4665;51.368;6.782;2023-10-19T05:47:12;99059.28;;;12.96;100.00
9257;BME280;4665;51.368;6.782;2023-10-19T05:49:37;99056.25;;;12.86;100.00
9257;BME280;4665;51.368;6.782;2023-10-19T05:52:03;99064.25;;;12.86;100.00
9257;BME280;4665;51.368;6.782;2023-10-19T05:54:28;99073.91;;;12.87;100.00
9257;BME280;4665;51.368;6.782;2023-10-19T05:56:54;99066.09;;;12.85;100.00
9257;BME280;4665;51.368;6.782;2023-10-19T05:59:19;99068.56;;;12.87;100.00
9257;BME280;4665;51.368;6.782;2023-10-19T06:01:45;99076.75;;;12.92;100.00
9257;BME280;4665;51.368;6.782;2023-10-19T06:04:13;99075.34;;;12.90;100.00
9257;BME280;4665;51.368;6.782;2023-10-19T06:06:39;99087.44;;;12.99;100.00
9257;BME280;4665;51.368;6.782;2023-10-19T06:09:07;99079.84;;;12.96;100.00
9257;BME280;4665;51.368;6.782;2023-10-19T06:11:36;99081.09;;;12.93;100.00
9257;BME280;4665;51.368;6.782;2023-10-19T06:14:07;99084.56;;;12.94;100.00
9257;BME280;4665;51.368;6.782;2023-10-19T06:16:33;99094.81;;;13.03;100.00
9257;BME280;4665;51.368;6.782;2023-10-19T06:18:59;99091.97;;;12.98;100.00
9257;BME280;4665;51.368;6.782;2023-10-19T06:21:25;99099.75;;;13.07;100.00
9257;BME280;4665;51.368;6.782;2023-10-19T06:23:50;99099.75;;;13.07;100.00
9257;BME280;4665;51.368;6.782;2023-10-19T06:26:18;99100.34;;;13.09;100.00
9257;BME280;4665;51.368;6.782;2023-10-19T06:28:43;99098.28;;;13.11;100.00
9257;BME280;4665;51.368;6.782;2023-10-19T06:31:08;99111.66;;;13.11;100.00
9257;BME280;4665;51.368;6.782;2023-10-19T06:33:34;99099.75;;;13.07;100.00
9257;BME280;4665;51.368;6.782;2023-10-19T06:35:59;99114.94;;;13.13;100.00
9257;BME280;4665;51.368;6.782;2023-10-19T06:38:28;99112.50;;;13.11;100.00
9257;BME280;4665;51.368;6.782;2023-10-19T06:40:54;99108.56;;;13.14;100.00
9257;BME280;4665;51.368;6.782;2023-10-19T06:43:19;99112.06;;;13.14;100.00
9257;BME280;4665;51.368;6.782;2023-10-19T06:45:48;99097.47;;;13.10;100.00
9257;BME280;4665;51.368;6.782;2023-10-19T06:48:14;99110.00;;;13.16;100.00
9257;BME280;4665;51.368;6.782;2023-10-19T06:50:40;99105.91;;;13.14;100.00
9257;BME280;4665;51.368;6.782;2023-10-19T06:53:05;99123.13;;;13.18;100.00
9257;BME280;4665;51.368;6.782;2023-10-19T06:55:31;99129.53;;;13.17;100.00
9257;BME280;4665;51.368;6.782;2023-10-19T06:57:56;99125.00;;;13.17;100.00
9257;BME280;4665;51.368;6.782;2023-10-19T07:00:23;99118.63;;;13.18;100.00
9257;BME280;4665;51.368;6.782;2023-10-19T07:02:53;99120.06;;;13.21;100.00
9257;BME280;4665;51.368;6.782;2023-10-19T07:05:20;99123.53;;;13.21;100.00
9257;BME280;4665;51.368;6.782;2023-10-19T07:07:55;99118.81;;;13.23;100.00
9257;BME280;4665;51.368;6.782;2023-10-19T07:10:22;99110.38;;;13.20;100.00
9257;BME280;4665;51.368;6.782;2023-10-19T07:12:51;99102.97;;;13.22;100.00
9257;BME280;4665;51.368;6.782;2023-10-19T07:15:17;99115.53;;;13.28;100.00
9257;BME280;4665;51.368;6.782;2023-10-19T07:17:47;99105.22;;;13.25;100.00
9257;BME280;4665;51.368;6.782;2023-10-19T07:20:13;99113.22;;;13.25;100.00
9257;BME280;4665;51.368;6.782;2023-10-19T07:23:01;99122.69;;;13.34;100.00
9257;BME280;4665;51.368;6.782;2023-10-19T07:25:49;99123.53;;;13.35;100.00
9257;BME280;4665;51.368;6.782;2023-10-19T07:28:35;99126.81;;;13.37;100.00
9257;BME280;4665;51.368;6.782;2023-10-19T07:31:00;99136.66;;;13.36;100.00
9257;BME280;4665;51.368;6.782;2023-10-19T07:33:28;99125.97;;;13.36;100.00
9257;BME280;4665;51.368;6.782;2023-10-19T07:35:54;99125.34;;;13.34;100.00
9257;BME280;4665;51.368;6.782;2023-10-19T07:38:23;99134.19;;;13.41;100.00
9257;BME280;4665;51.368;6.782;2023-10-19T07:40:49;99125.13;;;13.42;100.00
9257;BME280;4665;51.368;6.782;2023-10-19T07:43:14;99133.75;;;13.44;100.00
9257;BME280;4665;51.368;6.782;2023-10-19T07:45:40;99124.94;;;13.37;100.00
9257;BME280;4665;51.368;6.782;2023-10-19T07:48:05;99125.94;;;13.43;100.00
9257;BME280;4665;51.368;6.782;2023-10-19T07:50:32;99126.34;;;13.46;100.00
9257;BME280;4665;51.368;6.782;2023-10-19T07:52:58;99127.97;;;13.47;100.00
9257;BME280;4665;51.368;6.782;2023-10-19T07:55:23;99118.16;;;13.41;100.00
9257;BME280;4665;51.368;6.782;2023-10-19T07:57:50;99114.00;;;13.45;100.00
9257;BME280;4665;51.368;6.782;2023-10-19T08:00:16;99136.38;;;13.58;100.00
9257;BME280;4665;51.368;6.782;2023-10-19T08:02:43;99130.81;;;13.53;100.00
9257;BME280;4665;51.368;6.782;2023-10-19T08:05:11;99124.22;;;13.55;100.00
9257;BME280;4665;51.368;6.782;2023-10-19T08:07:37;99121.34;;;13.57;100.00
9257;BME280;4665;51.368;6.782;2023-10-19T08:10:06;99098.72;;;13.53;100.00
9257;BME280;4665;51.368;6.782;2023-10-19T08:12:33;99110.66;;;13.57;100.00
9257;BME280;4665;51.368;6.782;2023-10-19T08:14:59;99108.75;;;13.64;100.00
9257;BME280;4665;51.368;6.782;2023-10-19T08:17:24;99112.44;;;13.70;100.00
9257;BME280;4665;51.368;6.782;2023-10-19T08:19:50;99105.66;;;13.67;100.00
9257;BME280;4665;51.368;6.782;2023-10-19T08:22:15;99113.38;;;13.82;100.00
9257;BME280;4665;51.368;6.782;2023-10-19T08:24:41;99107.03;;;13.76;100.00
9257;BME280;4665;51.368;6.782;2023-10-19T08:27:11;99128.59;;;13.88;100.00
9257;BME280;4665;51.368;6.782;2023-10-19T08:29:37;99113.34;;;13.88;100.00
9257;BME280;4665;51.368;6.782;2023-10-19T08:32:03;99122.34;;;13.94;100.00
9257;BME280;4665;51.368;6.782;2023-10-19T08:34:33;99124.81;;;13.96;100.00
9257;BME280;4665;51.368;6.782;2023-10-19T08:37:00;99129.31;;;14.02;100.00
9257;BME280;4665;51.368;6.782;2023-10-19T08:39:26;99108.31;;;13.99;100.00
9257;BME280;4665;51.368;6.782;2023-10-19T08:41:52;99114.03;;;14.09;100.00
9257;BME280;4665;51.368;6.782;2023-10-19T08:44:19;99098.97;;;14.08;100.00
9257;BME280;4665;51.368;6.782;2023-10-19T08:46:45;99099.59;;;14.10;100.00
9257;BME280;4665;51.368;6.782;2023-10-19T08:49:14;99086.41;;;14.08;100.00
9257;BME280;4665;51.368;6.782;2023-10-19T08:51:43;99106.91;;;14.21;100.00
9257;BME280;4665;51.368;6.782;2023-10-19T08:54:10;99089.88;;;14.16;100.00
9257;BME280;4665;51.368;6.782;2023-10-19T08:56:40;99089.88;;;14.16;100.00
9257;BME280;4665;51.368;6.782;2023-10-19T08:59:10;99096.75;;;14.30;100.00
9257;BME280;4665;51.368;6.782;2023-10-19T09:01:40;99095.19;;;14.41;100.00
9257;BME280;4665;51.368;6.782;2023-10-19T09:04:12;99092.69;;;14.46;100.00
9257;BME280;4665;51.368;6.782;2023-10-19T09:06:39;99099.44;;;14.55;100.00
9257;BME280;4665;51.368;6.782;2023-10-19T09:09:16;99085.59;;;14.58;100.00
9257;BME280;4665;51.368;6.782;2023-10-19T09:11:44;99081.44;;;14.62;100.00
9257;BME280;4665;51.368;6.782;2023-10-19T09:14:11;99084.56;;;14.78;100.00
9257;BME280;4665;51.368;6.782;2023-10-19T09:16:55;99084.28;;;14.86;100.00
9257;BME280;4665;51.368;6.782;2023-10-19T09:19:38;99083.53;;;14.97;100.00
9257;BME280;4665;51.368;6.782;2023-10-19T09:22:05;99078.72;;;14.99;100.00
9257;BME280;4665;51.368;6.782;2023-10-19T09:24:35;99088.28;;;15.13;100.00
9257;BME280;4665;51.368;6.782;2023-10-19T09:27:04;99078.72;;;15.18;100.00
9257;BME280;4665;51.368;6.782;2023-10-19T09:29:30;99084.84;;;15.25;100.00
9257;BME280;4665;51.368;6.782;2023-10-19T09:31:59;99072.91;;;15.21;100.00
9257;BME280;4665;51.368;6.782;2023-10-19T09:34:29;99082.44;;;15.35;100.00
9257;BME280;4665;51.368;6.782;2023-10-19T09:37:02;99080.47;;;15.42;100.00
9257;BME280;4665;51.368;6.782;2023-10-19T09:39:31;99065.09;;;15.49;100.00
9257;BME280;4665;51.368;6.782;2023-10-19T09:42:10;99056.25;;;15.61;100.00
9257;BME280;4665;51.368;6.782;2023-10-19T09:44:41;99074.91;;;15.74;100.00
9257;BME280;4665;51.368;6.782;2023-10-19T09:47:10;99065.59;;;15.88;100.00
9257;BME280;4665;51.368;6.782;2023-10-19T09:49:38;99066.06;;;15.97;100.00
9257;BME280;4665;51.368;6.782;2023-10-19T09:52:04;99052.06;;;15.95;100.00
9257;BME280;4665;51.368;6.782;2023-10-19T09:57:16;99072.28;;;16.09;100.00
9257;BME280;4665;51.368;6.782;2023-10-19T09:59:46;99058.16;;;16.14;100.00
9257;BME280;4665;51.368;6.782;2023-10-19T10:02:15;99058.16;;;16.14;100.00
9257;BME280;4665;51.368;6.782;2023-10-19T10:04:43;99047.78;;;16.29;100.00
9257;BME280;4665;51.368;6.782;2023-10-19T10:07:13;99047.78;;;16.29;100.00
9257;BME280;4665;51.368;6.782;2023-10-19T10:09:40;99051.84;;;16.55;100.00
9257;BME280;4665;51.368;6.782;2023-10-19T10:12:16;99041.53;;;16.64;100.00
9257;BME280;4665;51.368;6.782;2023-10-19T10:15:05;99042.94;;;16.67;100.00
9257;BME280;4665;51.368;6.782;2023-10-19T10:17:34;99042.94;;;16.67;100.00
9257;BME280;4665;51.368;6.782;2023-10-19T10:22:42;99039.41;;;16.90;100.00
9257;BME280;4665;51.368;6.782;2023-10-19T10:25:08;99035.84;;;17.01;100.00
9257;BME280;4665;51.368;6.782;2023-10-19T10:27:53;99030.91;;;17.10;100.00
9257;BME280;4665;51.368;6.782;2023-10-19T10:30:19;99015.13;;;17.13;100.00
9257;BME280;4665;51.368;6.782;2023-10-19T10:32:46;99021.84;;;17.28;100.00
9257;BME280;4665;51.368;6.782;2023-10-19T10:38:10;99007.66;;;17.32;100.00
9257;BME280;4665;51.368;6.782;2023-10-19T10:40:47;99007.66;;;17.32;100.00
9257;BME280;4665;51.368;6.782;2023-10-19T10:43:13;62069.41;;;-145.78;100.00
9257;BME280;4665;51.368;6.782;2023-10-19T10:45:38;62069.41;;;-145.78;100.00
9257;BME280;4665;51.368;6.782;2023-10-19T10:48:11;99007.66;;;17.32;100.00
9257;BME280;4665;51.368;6.782;2023-10-19T10:50:37;62069.41;;;-145.78;100.00
9257;BME280;4665;51.368;6.782;2023-10-19T10:53:04;98994.00;;;17.51;100.00
9257;BME280;4665;51.368;6.782;2023-10-19T10:55:30;98994.00;;;17.51;100.00
9257;BME280;4665;51.368;6.782;2023-10-19T10:57:55;62069.41;;;-145.78;100.00
9257;BME280;4665;51.368;6.782;2023-10-19T11:00:21;62069.41;;;-145.78;100.00
9257;BME280;4665;51.368;6.782;2023-10-19T11:03:06;62069.41;;;-145.78;100.00
9257;BME280;4665;51.368;6.782;2023-10-19T11:05:36;98994.00;;;17.51;100.00
9257;BME280;4665;51.368;6.782;2023-10-19T11:10:34;62069.41;;;-145.78;100.00
9257;BME280;4665;51.368;6.782;2023-10-19T11:13:05;62069.41;;;-145.78;100.00
9257;BME280;4665;51.368;6.782;2023-10-19T11:15:35;62069.41;;;-145.78;100.00
9257;BME280;4665;51.368;6.782;2023-10-19T11:18:02;62069.41;;;-145.78;100.00
9257;BME280;4665;51.368;6.782;2023-10-19T11:20:28;62069.41;;;-145.78;100.00
9257;BME280;4665;51.368;6.782;2023-10-19T11:22:55;62069.41;;;-145.78;100.00
9257;BME280;4665;51.368;6.782;2023-10-19T11:25:28;62069.41;;;-145.78;100.00
9257;BME280;4665;51.368;6.782;2023-10-19T11:27:58;98973.53;;;18.00;100.00
9257;BME280;4665;51.368;6.782;2023-10-19T11:30:29;98973.59;;;18.05;100.00
9257;BME280;4665;51.368;6.782;2023-10-19T11:32:55;98968.03;;;18.12;100.00
9257;BME280;4665;51.368;6.782;2023-10-19T11:35:26;98967.75;;;18.08;100.00
9257;BME280;4665;51.368;6.782;2023-10-19T11:37:54;98949.81;;;17.97;100.00
9257;BME280;4665;51.368;6.782;2023-10-19T11:40:21;98962.13;;;17.93;100.00
9257;BME280;4665;51.368;6.782;2023-10-19T11:42:47;98959.53;;;17.81;100.00
9257;BME280;4665;51.368;6.782;2023-10-19T11:45:13;98963.34;;;17.69;100.00
9257;BME280;4665;51.368;6.782;2023-10-19T11:47:38;98943.75;;;17.56;100.00
9257;BME280;4665;51.368;6.782;2023-10-19T11:50:04;98964.31;;;17.62;100.00
9257;BME280;4665;51.368;6.782;2023-10-19T11:52:31;98956.16;;;17.57;100.00
9257;BME280;4665;51.368;6.782;2023-10-19T11:54:56;98965.28;;;17.56;100.00
9257;BME280;4665;51.368;6.782;2023-10-19T11:57:23;98958.28;;;17.55;100.00
9257;BME280;4665;51.368;6.782;2023-10-19T11:59:49;98956.63;;;17.54;100.00
9257;BME280;4665;51.368;6.782;2023-10-19T12:02:18;98962.59;;;17.56;100.00
9257;BME280;4665;51.368;6.782;2023-10-19T12:04:44;98952.31;;;17.53;100.00
9257;BME280;4665;51.368;6.782;2023-10-19T12:07:11;98954.03;;;17.59;100.00
9257;BME280;4665;51.368;6.782;2023-10-19T12:09:36;98954.59;;;17.61;100.00
9257;BME280;4665;51.368;6.782;2023-10-19T12:12:01;98950.03;;;17.62;100.00
9257;BME280;4665;51.368;6.782;2023-10-19T12:14:31;98947.59;;;17.60;100.00
9257;BME280;4665;51.368;6.782;2023-10-19T12:16:59;98945.41;;;17.57;100.00
9257;BME280;4665;51.368;6.782;2023-10-19T12:19:29;98941.06;;;17.56;100.00
9257;BME280;4665;51.368;6.782;2023-10-19T12:21:56;98924.09;;;17.56;100.00
9257;BME280;4665;51.368;6.782;2023-10-19T12:24:21;98939.28;;;17.62;100.00
9257;BME280;4665;51.368;6.782;2023-10-19T12:26:47;98950.34;;;17.65;100.00
9257;BME280;4665;51.368;6.782;2023-10-19T12:29:12;98953.53;;;17.62;100.00
9257;BME280;4665;51.368;6.782;2023-10-19T12:31:41;98939.19;;;17.57;100.00
9257;BME280;4665;51.368;6.782;2023-10-19T12:34:07;98934.78;;;17.51;100.00
9257;BME280;4665;51.368;6.782;2023-10-19T12:36:33;98948.91;;;17.58;100.00
9257;BME280;4665;51.368;6.782;2023-10-19T12:39:00;98939.19;;;17.57;100.00
9257;BME280;4665;51.368;6.782;2023-10-19T12:41:25;98946.44;;;17.56;100.00
9257;BME280;4665;51.368;6.782;2023-10-19T12:43:52;98929.91;;;17.48;100.00
9257;BME280;4665;51.368;6.782;2023-10-19T12:46:25;98924.75;;;17.46;100.00
9257;BME280;4665;51.368;6.782;2023-10-19T12:48:51;98947.50;;;17.55;100.00
9257;BME280;4665;51.368;6.782;2023-10-19T12:51:17;98949.97;;;17.57;100.00
9257;BME280;4665;51.368;6.782;2023-10-19T12:53:48;98948.09;;;17.57;100.00
9257;BME280;4665;51.368;6.782;2023-10-19T12:56:14;98954.50;;;17.56;100.00
9257;BME280;4665;51.368;6.782;2023-10-19T12:58:39;98954.50;;;17.56;100.00
9257;BME280;4665;51.368;6.782;2023-10-19T13:01:04;98938.88;;;17.53;100.00
9257;BME280;4665;51.368;6.782;2023-10-19T13:03:30;98944.81;;;17.55;100.00
9257;BME280;4665;51.368;6.782;2023-10-19T13:06:01;98944.81;;;17.55;100.00
9257;BME280;4665;51.368;6.782;2023-10-19T13:08:30;98950.69;;;17.52;100.00
9257;BME280;4665;51.368;6.782;2023-10-19T13:10:55;98946.34;;;17.51;100.00
9257;BME280;4665;51.368;6.782;2023-10-19T13:13:20;98939.81;;;17.47;100.00
9257;BME280;4665;51.368;6.782;2023-10-19T13:15:49;98914.88;;;17.35;100.00
9257;BME280;4665;51.368;6.782;2023-10-19T13:18:14;98929.47;;;17.39;100.00
9257;BME280;4665;51.368;6.782;2023-10-19T13:20:53;98929.72;;;17.37;100.00
9257;BME280;4665;51.368;6.782;2023-10-19T13:23:19;98926.44;;;17.35;100.00
9257;BME280;4665;51.368;6.782;2023-10-19T13:25:47;98949.63;;;17.36;100.00